Cape Normandy — HOIS — position and weather

sailwx.info

Track history (hours):
 
Tides and Currents Weather Stations Pressure Air Temp Water Temp Dewpoint Dewpoint Depression Visibility Wind Speed Wind Dir Waves Ship Positions

Cape Normandy

Last reported at 2017-Nov-19 08:05 UTC. Time now 2017-Nov-19 12:19 UTC.
Position S 32°49' E 029°59'.

Length 292 m; draft 10.4 m.

Type: Cargo ship. MMSI: 373954000.

Date/timePositionNaut miles runAvg speedWind from/ knotsBaromVisibWave heightAir tempDewpointWater temp
2017-Nov-19 08:05S 32°49' E 029°59'113.5
2017-Nov-19 08:00S 32°49' E 029°60'713.4
2017-Nov-19 07:30S 32°46' E 030°07'713.4
2017-Nov-19 07:00S 32°43' E 030°14'713.3
2017-Nov-19 06:29S 32°41' E 030°22'613.2
2017-Nov-19 06:00S 32°39' E 030°29'613.1
2017-Nov-19 05:30S 32°36' E 030°36'713.1
2017-Nov-19 05:00S 32°33' E 030°43'713.1
2017-Nov-19 04:30S 32°30' E 030°50'613.0
2017-Nov-19 04:00S 32°27' E 030°57'612.7
2017-Nov-19 03:31S 32°25' E 031°04'612.6
2017-Nov-19 03:00S 32°22' E 031°10'612.7
2017-Nov-19 02:30S 32°19' E 031°17'712.9
2017-Nov-19 02:00S 32°16' E 031°24'612.7
2017-Nov-19 01:30S 32°13' E 031°31'712.8
2017-Nov-19 01:00S 32°11' E 031°38'612.8
2017-Nov-19 00:30S 32°08' E 031°45'713.0
2017-Nov-19 00:00S 32°05' E 031°52'912.8
2017-Nov-18 23:17S 32°01' E 032°01'912.7
2017-Nov-18 22:34S 31°57' E 032°11'112.7
2017-Nov-18 22:30S 31°56' E 032°12'712.8
2017-Nov-18 21:59S 31°53' E 032°19'612.8
2017-Nov-18 21:30S 31°51' E 032°25'3012.4
2017-Nov-18 19:04S 31°39' E 032°58'112.0
2017-Nov-18 18:58S 31°38' E 032°59'  
Track history (hours):
 
Tides and Currents Weather Stations Pressure Air Temp Water Temp Dewpoint Dewpoint Depression Visibility Wind Speed Wind Dir Waves Ship Positions

Cape Normandy

Last reported at 2017-Nov-19 08:05 UTC. Time now 2017-Nov-19 12:19 UTC.
Position S 32°49' E 029°59'.

Length 292 m; draft 10.4 m.

Type: Cargo ship. MMSI: 373954000.

Date/timePositionNaut miles runAvg speedWind from/ knotsBaromVisibWave heightAir tempDewpointWater temp
2017-Nov-19 08:05S 32°49' E 029°59'113.5
2017-Nov-19 08:00S 32°49' E 029°60'713.4
2017-Nov-19 07:30S 32°46' E 030°07'713.4
2017-Nov-19 07:00S 32°43' E 030°14'713.3
2017-Nov-19 06:29S 32°41' E 030°22'613.2
2017-Nov-19 06:00S 32°39' E 030°29'613.1
2017-Nov-19 05:30S 32°36' E 030°36'713.1
2017-Nov-19 05:00S 32°33' E 030°43'713.1
2017-Nov-19 04:30S 32°30' E 030°50'613.0
2017-Nov-19 04:00S 32°27' E 030°57'612.7
2017-Nov-19 03:31S 32°25' E 031°04'612.6
2017-Nov-19 03:00S 32°22' E 031°10'612.7
2017-Nov-19 02:30S 32°19' E 031°17'712.9
2017-Nov-19 02:00S 32°16' E 031°24'612.7
2017-Nov-19 01:30S 32°13' E 031°31'712.8
2017-Nov-19 01:00S 32°11' E 031°38'612.8
2017-Nov-19 00:30S 32°08' E 031°45'713.0
2017-Nov-19 00:00S 32°05' E 031°52'912.8
2017-Nov-18 23:17S 32°01' E 032°01'912.7
2017-Nov-18 22:34S 31°57' E 032°11'112.7
2017-Nov-18 22:30S 31°56' E 032°12'712.8
2017-Nov-18 21:59S 31°53' E 032°19'612.8
2017-Nov-18 21:30S 31°51' E 032°25'3012.4
2017-Nov-18 19:04S 31°39' E 032°58'112.0
2017-Nov-18 18:58S 31°38' E 032°59'  

Dump ship's entire track history